createdAt,value
2023-05-01T00:02:53.150Z,6.00
2023-05-01T00:05:21.282Z,6.30
2023-05-01T00:07:49.837Z,9.10
2023-05-01T00:10:19.480Z,7.40
2023-05-01T00:12:47.536Z,7.00
2023-05-01T00:15:15.787Z,7.70
2023-05-01T00:17:43.900Z,8.70
2023-05-01T00:20:12.156Z,10.10
2023-05-01T00:22:40.277Z,13.80
2023-05-01T00:25:08.819Z,12.30
2023-05-01T00:27:37.099Z,8.90
2023-05-01T00:30:06.088Z,8.30
2023-05-01T00:32:34.663Z,6.20
2023-05-01T00:35:02.821Z,6.20
2023-05-01T00:37:31.209Z,6.40
2023-05-01T00:39:59.652Z,7.50
2023-05-01T00:42:27.916Z,10.30
2023-05-01T00:44:56.020Z,8.60
2023-05-01T00:47:24.196Z,7.70
2023-05-01T00:49:53.265Z,6.30
2023-05-01T00:52:21.435Z,6.90
2023-05-01T00:54:52.222Z,6.10
2023-05-01T00:57:20.992Z,5.30
2023-05-01T00:59:49.510Z,5.60
2023-05-01T01:02:17.618Z,5.10
2023-05-01T01:04:48.223Z,5.40
2023-05-01T01:07:34.691Z,6.00
2023-05-01T01:10:10.381Z,6.30
2023-05-01T01:12:46.060Z,6.90
2023-05-01T01:15:22.364Z,9.90
2023-05-01T01:18:09.926Z,10.70
2023-05-01T01:20:45.605Z,9.70
2023-05-01T01:23:25.768Z,9.50
2023-05-01T01:25:57.161Z,8.90
2023-05-01T01:28:40.192Z,8.30
2023-05-01T01:31:21.109Z,6.50
2023-05-01T01:34:27.840Z,6.50
2023-05-01T01:37:13.345Z,6.70
2023-05-01T01:40:10.516Z,6.20
2023-05-01T01:42:43.331Z,6.40
2023-05-01T01:45:22.056Z,6.10
2023-05-01T01:47:52.414Z,5.60
2023-05-01T01:50:24.869Z,4.60
2023-05-01T01:52:54.929Z,5.00
2023-05-01T01:57:54.369Z,4.90
2023-05-01T02:00:23.574Z,6.40
2023-05-01T02:02:53.887Z,5.30
2023-05-01T02:05:24.340Z,4.80
2023-05-01T02:07:53.212Z,4.70
2023-05-01T02:10:23.224Z,4.90
2023-05-01T02:12:53.313Z,5.00
2023-05-01T02:17:51.395Z,4.80
2023-05-01T02:20:21.731Z,4.40
2023-05-01T02:22:53.363Z,4.30
2023-05-01T02:25:22.343Z,4.30
2023-05-01T02:27:53.173Z,4.50
2023-05-01T02:30:21.394Z,4.60
2023-05-01T02:32:49.535Z,4.70
2023-05-01T02:35:17.969Z,4.50
2023-05-01T02:37:46.444Z,4.50
2023-05-01T02:40:15.317Z,4.80
2023-05-01T02:42:45.131Z,4.30
2023-05-01T02:45:20.007Z,3.80
2023-05-01T02:47:55.279Z,3.70
2023-05-01T02:50:24.685Z,3.50
2023-05-01T02:52:54.154Z,4.60
2023-05-01T02:55:22.510Z,4.10
2023-05-01T02:57:53.566Z,4.10
2023-05-01T03:00:21.830Z,3.70
2023-05-01T03:02:49.904Z,4.00
2023-05-01T03:05:18.086Z,4.10
2023-05-01T03:07:47.447Z,4.30
2023-05-01T03:10:15.825Z,4.80
2023-05-01T03:12:44.478Z,4.30
2023-05-01T03:15:13.142Z,4.10
2023-05-01T03:17:41.318Z,4.40
2023-05-01T03:20:11.144Z,4.10
2023-05-01T03:22:40.277Z,4.40
2023-05-01T03:25:09.504Z,4.20
2023-05-01T03:27:37.596Z,4.50
2023-05-01T03:30:06.359Z,4.60
2023-05-01T03:32:34.900Z,4.70
2023-05-01T03:35:03.143Z,4.30
2023-05-01T03:37:31.530Z,4.50
2023-05-01T03:39:59.984Z,4.40
2023-05-01T03:42:28.242Z,4.20
2023-05-01T03:44:56.369Z,3.70
2023-05-01T03:47:24.468Z,4.50
2023-05-01T03:49:52.750Z,3.80
2023-05-01T03:52:20.874Z,4.40
2023-05-01T03:54:50.050Z,4.10
2023-05-01T03:57:18.232Z,4.40
2023-05-01T03:59:47.483Z,4.90
2023-05-01T04:02:15.586Z,4.90
2023-05-01T04:04:44.162Z,3.90
2023-05-01T04:07:13.275Z,4.40
2023-05-01T04:09:41.493Z,4.00
2023-05-01T04:12:09.855Z,4.20
2023-05-01T04:14:37.921Z,4.20
2023-05-01T04:17:06.303Z,4.10
2023-05-01T04:19:34.923Z,4.20
2023-05-01T04:22:02.969Z,4.50
2023-05-01T04:24:31.052Z,4.90
2023-05-01T04:26:59.274Z,4.60
2023-05-01T04:29:27.384Z,4.60
2023-05-01T04:31:55.479Z,5.00
2023-05-01T04:34:23.859Z,4.70
2023-05-01T04:36:51.987Z,4.50
2023-05-01T04:39:20.098Z,4.70
2023-05-01T04:41:48.204Z,4.20
2023-05-01T04:44:16.605Z,4.10
2023-05-01T04:46:45.093Z,4.10
2023-05-01T04:49:13.300Z,4.60
2023-05-01T04:51:41.722Z,4.50
2023-05-01T04:54:09.778Z,4.70
2023-05-01T04:56:37.931Z,4.40
2023-05-01T04:59:06.571Z,5.10
2023-05-01T05:01:34.608Z,4.90
2023-05-01T05:04:03.016Z,4.90
2023-05-01T05:06:31.938Z,4.40
2023-05-01T05:09:00.081Z,4.40
2023-05-01T05:11:28.213Z,4.50
2023-05-01T05:13:56.304Z,4.20
2023-05-01T05:16:24.509Z,4.10
2023-05-01T05:18:52.646Z,4.40
2023-05-01T05:21:20.743Z,4.30
2023-05-01T05:23:48.893Z,4.30
2023-05-01T05:26:17.052Z,4.20
2023-05-01T05:28:45.752Z,4.10
2023-05-01T05:31:13.905Z,3.70
2023-05-01T05:33:42.098Z,4.00
2023-05-01T05:36:10.426Z,3.90
2023-05-01T05:38:38.751Z,3.90
2023-05-01T05:41:06.970Z,3.90
2023-05-01T05:43:35.048Z,3.50
2023-05-01T05:46:03.249Z,4.30
2023-05-01T05:48:31.465Z,3.70
2023-05-01T05:50:59.581Z,4.10
2023-05-01T05:53:27.606Z,4.00
2023-05-01T05:55:56.078Z,3.80
2023-05-01T05:58:24.770Z,4.40
2023-05-01T06:00:59.338Z,3.90
2023-05-01T06:03:27.690Z,4.40
2023-05-01T06:05:56.170Z,3.90
2023-05-01T06:08:24.389Z,3.70
2023-05-01T06:10:52.564Z,3.60
2023-05-01T06:13:20.773Z,3.60
2023-05-01T06:15:49.103Z,4.00
2023-05-01T06:18:17.554Z,3.70
2023-05-01T06:20:47.354Z,3.80
2023-05-01T06:23:16.393Z,3.50
2023-05-01T06:25:44.572Z,3.50
2023-05-01T06:28:12.653Z,3.10
2023-05-01T06:30:40.805Z,3.40
2023-05-01T06:33:10.432Z,3.50
2023-05-01T06:35:41.586Z,3.10
2023-05-01T06:38:09.695Z,3.30
2023-05-01T06:40:37.751Z,3.40
2023-05-01T06:43:05.974Z,3.40
2023-05-01T06:45:34.140Z,3.40
2023-05-01T06:48:02.480Z,3.40
2023-05-01T06:50:30.712Z,3.90
2023-05-01T06:53:01.080Z,4.10
2023-05-01T06:55:35.209Z,3.50
2023-05-01T06:58:16.026Z,3.70
2023-05-01T07:00:51.569Z,3.40
2023-05-01T07:03:19.767Z,3.50
2023-05-01T07:05:48.589Z,3.30
2023-05-01T07:08:16.658Z,3.70
2023-05-01T07:10:44.790Z,3.20
2023-05-01T07:13:12.897Z,3.30
2023-05-01T07:15:40.936Z,3.20
2023-05-01T07:18:09.906Z,3.30
2023-05-01T07:20:38.155Z,3.50
2023-05-01T07:23:07.521Z,3.30
2023-05-01T07:25:44.488Z,3.30
2023-05-01T07:28:12.625Z,3.40
2023-05-01T07:30:40.854Z,3.40
2023-05-01T07:33:08.928Z,3.10
2023-05-01T07:35:37.533Z,3.40
2023-05-01T07:38:05.733Z,3.70
2023-05-01T07:40:34.969Z,3.70
2023-05-01T07:43:03.075Z,3.20
2023-05-01T07:45:31.509Z,3.50
2023-05-01T07:47:59.805Z,3.50
2023-05-01T07:50:27.981Z,3.50
2023-05-01T07:52:56.196Z,3.50
2023-05-01T07:55:24.830Z,3.40
2023-05-01T07:57:52.865Z,3.40
2023-05-01T08:00:21.107Z,3.40
2023-05-01T08:02:49.240Z,3.60
2023-05-01T08:05:17.385Z,3.30
2023-05-01T08:07:45.544Z,3.80
2023-05-01T08:10:13.850Z,3.20
2023-05-01T08:12:41.940Z,3.50
2023-05-01T08:15:10.095Z,3.40
2023-05-01T08:17:38.461Z,3.60
2023-05-01T08:20:07.293Z,3.40
2023-05-01T08:22:35.480Z,3.50
2023-05-01T08:25:04.841Z,3.80
2023-05-01T08:27:33.900Z,3.60
2023-05-01T08:30:01.997Z,3.70
2023-05-01T08:32:30.240Z,4.00
2023-05-01T08:34:58.393Z,3.80
2023-05-01T08:37:26.933Z,3.90
2023-05-01T08:39:55.105Z,3.70
2023-05-01T08:42:23.664Z,3.50
2023-05-01T08:44:54.619Z,3.50
2023-05-01T08:47:22.880Z,4.50
2023-05-01T08:49:52.507Z,5.90
2023-05-01T08:52:22.315Z,3.50
2023-05-01T08:54:54.717Z,3.40
2023-05-01T08:57:24.198Z,3.60
2023-05-01T08:59:53.760Z,3.30
2023-05-01T09:02:33.929Z,3.60
2023-05-01T09:05:04.126Z,3.20
2023-05-01T09:07:35.562Z,3.70
2023-05-01T09:10:04.303Z,3.90
2023-05-01T09:12:35.880Z,3.70
2023-05-01T09:15:04.572Z,3.50
2023-05-01T09:17:33.211Z,3.50
2023-05-01T09:20:08.027Z,3.30
2023-05-01T09:22:36.669Z,3.60
2023-05-01T09:25:05.221Z,3.10
2023-05-01T09:27:38.245Z,3.90
2023-05-01T09:30:07.732Z,3.60
2023-05-01T09:32:42.462Z,3.40
2023-05-01T09:35:14.920Z,3.00
2023-05-01T09:37:43.983Z,2.90
2023-05-01T09:43:01.698Z,3.00
2023-05-01T09:45:30.194Z,2.90
2023-05-01T09:48:36.132Z,2.90
2023-05-01T09:51:57.316Z,3.20
2023-05-01T09:54:29.076Z,3.20
2023-05-01T09:57:17.102Z,4.30
2023-05-01T10:00:10.625Z,3.10
2023-05-01T10:02:46.012Z,2.90
2023-05-01T10:05:20.617Z,2.80
2023-05-01T10:08:27.725Z,2.80
2023-05-01T10:16:31.344Z,2.40
2023-05-01T11:00:04.134Z,2.30
2023-05-01T11:03:20.998Z,2.00
2023-05-01T11:06:10.288Z,2.30
2023-05-01T11:08:41.444Z,2.20
2023-05-01T11:11:28.439Z,2.20
2023-05-01T11:14:06.464Z,2.00
2023-05-01T11:16:46.094Z,2.30
2023-05-01T11:19:29.841Z,2.30
2023-05-01T11:24:43.502Z,2.10
2023-05-01T11:27:14.296Z,2.20
2023-05-01T11:30:20.886Z,2.00
2023-05-01T11:33:22.050Z,2.30
2023-05-01T11:36:27.918Z,2.00
2023-05-01T11:39:25.158Z,2.10
2023-05-01T11:42:13.328Z,2.00
2023-05-01T11:48:31.225Z,2.30
2023-05-01T11:51:02.134Z,2.50
2023-05-01T11:53:47.709Z,2.30
2023-05-01T11:56:26.910Z,2.40
2023-05-01T11:59:18.479Z,2.70
2023-05-01T12:01:55.366Z,3.20
2023-05-01T12:04:32.321Z,2.80
2023-05-01T12:07:39.490Z,2.40
2023-05-01T12:10:08.608Z,2.30
2023-05-01T12:12:36.934Z,2.50
2023-05-01T12:15:05.831Z,2.30
2023-05-01T12:17:36.850Z,1.90
2023-05-01T12:20:06.071Z,2.10
2023-05-01T12:22:34.441Z,2.10
2023-05-01T12:25:04.500Z,2.30
2023-05-01T12:27:33.063Z,2.10
2023-05-01T12:30:03.717Z,2.00
2023-05-01T12:32:33.756Z,2.10
2023-05-01T12:35:13.376Z,2.60
2023-05-01T12:37:41.555Z,2.40
2023-05-01T12:40:17.193Z,2.40
2023-05-01T12:42:54.627Z,2.70
2023-05-01T12:45:23.583Z,2.80
2023-05-01T12:47:52.186Z,2.70
2023-05-01T12:50:21.001Z,2.50
2023-05-01T12:52:49.714Z,2.00
2023-05-01T12:55:17.989Z,2.50
2023-05-01T12:57:54.927Z,2.20
2023-05-01T13:00:23.587Z,3.80
2023-05-01T13:02:51.948Z,3.60
2023-05-01T13:05:20.164Z,19.70
2023-05-01T13:07:49.784Z,44.80
2023-05-01T13:15:26.011Z,5.50
2023-05-01T13:17:54.278Z,13.70
2023-05-01T13:20:29.645Z,15.20
2023-05-01T13:22:57.850Z,2.90
2023-05-01T13:25:26.178Z,2.70
2023-05-01T13:27:54.510Z,2.80
2023-05-01T13:30:33.060Z,2.90
2023-05-01T13:33:02.089Z,3.80
2023-05-01T13:35:31.753Z,4.50
2023-05-01T13:38:03.445Z,3.50
2023-05-01T13:40:34.288Z,3.40
2023-05-01T13:43:03.143Z,24.20
2023-05-01T13:45:31.428Z,13.50
2023-05-01T13:47:59.593Z,5.50
2023-05-01T13:50:28.329Z,7.60
2023-05-01T13:52:56.614Z,7.00
2023-05-01T13:55:24.877Z,6.20
2023-05-01T13:57:53.229Z,3.10
2023-05-01T14:00:22.654Z,2.40
2023-05-01T14:05:27.649Z,3.10
2023-05-01T14:07:58.463Z,3.00
2023-05-01T14:10:29.098Z,2.10
2023-05-01T14:12:59.025Z,2.10
2023-05-01T14:15:31.693Z,2.30
2023-05-01T14:18:20.838Z,2.30
2023-05-01T14:20:49.049Z,2.30
2023-05-01T14:23:17.322Z,2.40
2023-05-01T14:25:46.704Z,2.50
2023-05-01T14:28:15.538Z,2.60
2023-05-01T14:30:44.009Z,3.10
2023-05-01T14:33:13.355Z,2.70
2023-05-01T14:57:10.902Z,2.20
2023-05-01T15:06:08.424Z,4.10
2023-05-01T15:10:15.033Z,2.90
2023-05-01T15:13:15.268Z,2.70
2023-05-01T15:22:14.469Z,2.70
2023-05-01T15:29:17.850Z,2.90
2023-05-01T15:40:36.074Z,2.80
2023-05-01T15:43:19.257Z,3.20
2023-05-01T15:46:25.670Z,3.90
2023-05-01T15:49:16.191Z,3.70
2023-05-01T15:51:48.788Z,5.40
2023-05-01T15:54:40.234Z,8.30
2023-05-01T15:57:52.595Z,6.40
2023-05-01T16:00:43.216Z,8.40
2023-05-01T16:04:18.172Z,7.40
2023-05-01T16:06:49.024Z,5.20
2023-05-01T16:09:25.958Z,3.40
2023-05-01T16:21:12.879Z,2.90
2023-05-01T16:28:13.094Z,3.10
2023-05-01T16:30:59.637Z,3.40
2023-05-01T16:37:29.179Z,3.20
2023-05-01T16:39:59.992Z,3.80
2023-05-01T16:42:28.758Z,3.40
2023-05-01T16:44:58.714Z,5.50
2023-05-01T16:47:26.927Z,3.40
2023-05-01T16:50:00.685Z,3.80
2023-05-01T16:52:29.170Z,3.10
2023-05-01T16:54:59.082Z,3.20
2023-05-01T16:57:30.162Z,2.80
2023-05-01T17:00:03.214Z,2.70
2023-05-01T17:02:31.892Z,2.70
2023-05-01T17:05:00.489Z,3.00
2023-05-01T17:07:28.768Z,3.30
2023-05-01T17:09:57.060Z,3.80
2023-05-01T17:12:25.810Z,3.30
2023-05-01T17:14:54.315Z,3.30
2023-05-01T17:17:23.471Z,3.50
2023-05-01T17:19:52.775Z,2.70
2023-05-01T17:22:20.988Z,3.20
2023-05-01T17:24:50.745Z,4.30
2023-05-01T17:29:47.182Z,6.20
2023-05-01T17:32:20.331Z,5.50
2023-05-01T17:35:01.567Z,5.10
2023-05-01T17:37:29.651Z,5.00
2023-05-01T17:39:58.101Z,4.90
2023-05-01T17:42:26.559Z,6.50
2023-05-01T17:44:54.673Z,5.30
2023-05-01T17:47:25.320Z,6.80
2023-05-01T17:49:54.721Z,7.20
2023-05-01T17:52:22.991Z,7.30
2023-05-01T17:54:51.399Z,6.20
2023-05-01T17:57:19.746Z,4.70
2023-05-01T17:59:48.092Z,4.80
2023-05-01T18:02:16.433Z,7.20
2023-05-01T18:04:46.046Z,6.70
2023-05-01T18:07:14.241Z,6.60
2023-05-01T18:09:42.618Z,5.80
2023-05-01T18:12:11.415Z,5.40
2023-05-01T18:14:39.827Z,5.10
2023-05-01T18:17:08.268Z,5.40
2023-05-01T18:19:36.474Z,6.10
2023-05-01T18:22:05.990Z,6.00
2023-05-01T18:24:42.697Z,7.70
2023-05-01T18:27:12.392Z,9.50
2023-05-01T18:32:12.757Z,14.30
2023-05-01T18:34:42.351Z,15.50
2023-05-01T18:37:10.600Z,16.60
2023-05-01T18:39:39.287Z,16.80
2023-05-01T18:42:07.461Z,17.80
2023-05-01T18:44:35.668Z,13.50
2023-05-01T18:47:04.377Z,11.30
2023-05-01T18:49:32.948Z,7.90
2023-05-01T18:52:22.502Z,6.70
2023-05-01T18:55:00.142Z,7.30
2023-05-01T18:57:31.899Z,7.50
2023-05-01T19:00:01.467Z,5.10
2023-05-01T19:02:51.681Z,4.80
2023-05-01T19:05:41.572Z,4.60
2023-05-01T19:08:11.194Z,5.40
2023-05-01T19:10:43.961Z,6.50
2023-05-01T19:13:12.461Z,6.10
2023-05-01T19:15:42.287Z,5.70
2023-05-01T19:18:37.552Z,5.60
2023-05-01T19:21:06.111Z,5.30
2023-05-01T19:23:35.671Z,5.50
2023-05-01T19:26:05.121Z,5.70
2023-05-01T19:28:33.722Z,6.90
2023-05-01T19:31:02.558Z,7.50
2023-05-01T19:33:32.064Z,7.50
2023-05-01T19:36:00.908Z,7.30
2023-05-01T19:38:29.888Z,8.00
2023-05-01T19:40:58.278Z,8.20
2023-05-01T19:43:26.741Z,7.60
2023-05-01T19:45:55.269Z,7.70
2023-05-01T19:48:23.857Z,8.70
2023-05-01T19:50:52.210Z,7.30
2023-05-01T19:53:21.233Z,8.00
2023-05-01T19:55:50.942Z,8.30
2023-05-01T19:58:19.539Z,8.20
2023-05-01T20:00:48.482Z,8.80
2023-05-01T20:03:17.733Z,8.00
2023-05-01T20:05:46.345Z,7.90
2023-05-01T20:08:15.315Z,7.10
2023-05-01T20:10:43.713Z,6.70
2023-05-01T20:13:12.037Z,6.50
2023-05-01T20:15:43.331Z,6.80
2023-05-01T20:18:13.348Z,6.70
2023-05-01T20:20:41.985Z,7.20
2023-05-01T20:23:11.216Z,6.90
2023-05-01T20:25:40.111Z,7.00
2023-05-01T20:28:10.667Z,6.80
2023-05-01T20:30:41.855Z,7.40
2023-05-01T20:33:10.203Z,7.60
2023-05-01T20:35:39.488Z,6.80
2023-05-01T20:38:07.741Z,6.30
2023-05-01T20:40:40.345Z,6.20
2023-05-01T20:43:09.943Z,6.90
2023-05-01T20:45:39.813Z,8.30
2023-05-01T20:48:09.918Z,8.40
2023-05-01T20:51:07.677Z,9.40
2023-05-01T20:53:35.964Z,10.30
2023-05-01T20:56:04.783Z,11.10
2023-05-01T20:58:35.727Z,11.10
2023-05-01T21:01:05.731Z,10.50
2023-05-01T21:03:35.182Z,10.30
2023-05-01T21:06:05.062Z,10.00
2023-05-01T21:08:34.698Z,7.70
2023-05-01T21:13:32.461Z,7.80
2023-05-01T21:16:01.567Z,8.10
2023-05-01T21:18:34.497Z,6.70
2023-05-01T21:21:03.898Z,6.30
2023-05-01T21:23:32.217Z,6.00
2023-05-01T21:26:00.824Z,6.10
2023-05-01T21:28:29.361Z,6.10
2023-05-01T21:31:00.045Z,5.40
2023-05-01T21:33:30.664Z,5.90
2023-05-01T21:35:59.219Z,6.30
2023-05-01T21:38:29.986Z,5.60
2023-05-01T21:41:06.337Z,6.20
2023-05-01T21:43:36.016Z,5.70
2023-05-01T21:46:04.455Z,5.70
2023-05-01T21:48:35.243Z,5.90
2023-05-01T21:51:03.988Z,6.70
2023-05-01T21:53:32.680Z,7.10
2023-05-01T21:56:01.232Z,6.60
2023-05-01T21:58:29.396Z,7.00
2023-05-01T22:00:59.675Z,7.20
2023-05-01T22:03:27.914Z,6.50
2023-05-01T22:05:56.117Z,5.40
2023-05-01T22:08:29.752Z,4.90
2023-05-01T22:10:58.268Z,5.40
2023-05-01T22:13:33.298Z,5.60
2023-05-01T22:16:01.712Z,5.70
2023-05-01T22:18:30.421Z,5.30
2023-05-01T22:21:00.254Z,6.60
2023-05-01T22:26:01.568Z,5.90
2023-05-01T22:28:29.760Z,5.60
2023-05-01T22:30:58.034Z,6.00
2023-05-01T22:33:26.232Z,5.90
2023-05-01T22:35:54.422Z,6.70
2023-05-01T22:38:22.634Z,7.10
2023-05-01T22:40:50.800Z,7.10
2023-05-01T22:43:19.281Z,7.10
2023-05-01T22:45:48.341Z,6.20
2023-05-01T22:48:17.096Z,6.40
2023-05-01T22:50:45.345Z,6.60
2023-05-01T22:53:13.802Z,7.10
2023-05-01T22:55:41.907Z,6.30
2023-05-01T22:58:10.086Z,8.10
2023-05-01T23:00:38.301Z,7.60
2023-05-01T23:03:06.832Z,7.60
2023-05-01T23:05:35.897Z,7.30
2023-05-01T23:08:04.130Z,6.30
2023-05-01T23:10:33.798Z,5.90
2023-05-01T23:13:02.250Z,5.70
2023-05-01T23:15:30.424Z,5.90
2023-05-01T23:17:58.623Z,6.40
2023-05-01T23:20:26.783Z,6.70
2023-05-01T23:22:54.850Z,7.30
2023-05-01T23:25:26.942Z,6.10
2023-05-01T23:27:56.626Z,6.50
2023-05-01T23:30:24.893Z,6.00
2023-05-01T23:32:59.518Z,5.90
2023-05-01T23:35:27.783Z,5.60
2023-05-01T23:37:56.090Z,5.50
2023-05-01T23:40:24.325Z,6.00
2023-05-01T23:42:53.098Z,6.40
2023-05-01T23:45:21.245Z,6.20
2023-05-01T23:47:49.325Z,5.70
2023-05-01T23:50:18.204Z,5.70
2023-05-01T23:52:46.752Z,5.20
2023-05-01T23:55:14.827Z,4.90
2023-05-01T23:57:43.130Z,8.90
